Terminal Aerodrome Forecast
Issued by NWS

Home | Current Version | Previous Version | Text Only | Print | Product List | Glossary On
Versions: 1 2 3 4 5 6 7 8 9 10 11 12 13 14 15 16 17 18 19
000
FTAK31 PAJN 241142 RRA
TAFAKT
TAF
PAKT 241142Z 2412/2512 32005KT P6SM BKN040
     FM241800 14010KT P6SM -SN OVC035
     FM242200 13014G28KT 4SM -RASN SCT015 OVC025 WS020/18035KT
     FM250300 14010KT 6SM -SHRA OVC025
      AMD LTD TO CLD VIS AND WIND 2412/2415=

USA.gov is the U.S. government's official web portal to all federal, state and local government web resources and services.